sensor_id;sensor_type;location;lat;lon;timestamp;P1;durP1;ratioP1;P2;durP2;ratioP2
57567;SDS011;43403;51.948;5.922;2023-10-13T00:01:09;23.88;;;16.48;;
57567;SDS011;43403;51.948;5.922;2023-10-13T00:03:38;22.95;;;14.55;;
57567;SDS011;43403;51.948;5.922;2023-10-13T00:06:06;25.02;;;14.77;;
57567;SDS011;43403;51.948;5.922;2023-10-13T00:08:33;17.38;;;13.77;;
57567;SDS011;43403;51.948;5.922;2023-10-13T00:10:59;17.90;;;11.90;;
57567;SDS011;43403;51.948;5.922;2023-10-13T00:13:29;18.15;;;12.77;;
57567;SDS011;43403;51.948;5.922;2023-10-13T00:16:00;20.80;;;13.90;;
57567;SDS011;43403;51.948;5.922;2023-10-13T00:18:28;20.73;;;13.98;;
57567;SDS011;43403;51.948;5.922;2023-10-13T00:21:00;18.63;;;13.13;;
57567;SDS011;43403;51.948;5.922;2023-10-13T00:23:26;21.02;;;14.38;;
57567;SDS011;43403;51.948;5.922;2023-10-13T00:25:53;19.85;;;13.70;;
57567;SDS011;43403;51.948;5.922;2023-10-13T00:28:24;19.63;;;13.98;;
57567;SDS011;43403;51.948;5.922;2023-10-13T00:30:51;17.13;;;13.05;;
57567;SDS011;43403;51.948;5.922;2023-10-13T00:33:19;22.10;;;13.75;;
57567;SDS011;43403;51.948;5.922;2023-10-13T00:35:49;19.60;;;12.93;;
57567;SDS011;43403;51.948;5.922;2023-10-13T00:38:18;19.13;;;12.68;;
57567;SDS011;43403;51.948;5.922;2023-10-13T00:40:45;20.52;;;13.05;;
57567;SDS011;43403;51.948;5.922;2023-10-13T00:43:19;17.73;;;12.57;;
57567;SDS011;43403;51.948;5.922;2023-10-13T00:45:46;21.27;;;12.45;;
57567;SDS011;43403;51.948;5.922;2023-10-13T00:48:24;18.35;;;12.32;;
57567;SDS011;43403;51.948;5.922;2023-10-13T00:50:56;19.83;;;12.07;;
57567;SDS011;43403;51.948;5.922;2023-10-13T00:53:24;19.25;;;11.93;;
57567;SDS011;43403;51.948;5.922;2023-10-13T00:58:17;16.92;;;11.10;;
57567;SDS011;43403;51.948;5.922;2023-10-13T01:00:49;18.63;;;11.05;;
57567;SDS011;43403;51.948;5.922;2023-10-13T01:03:23;20.42;;;11.82;;
57567;SDS011;43403;51.948;5.922;2023-10-13T01:05:54;17.30;;;11.05;;
57567;SDS011;43403;51.948;5.922;2023-10-13T01:10:49;15.38;;;10.48;;
57567;SDS011;43403;51.948;5.922;2023-10-13T01:13:16;20.33;;;11.40;;
57567;SDS011;43403;51.948;5.922;2023-10-13T01:15:43;14.17;;;11.20;;
57567;SDS011;43403;51.948;5.922;2023-10-13T01:18:12;20.83;;;10.90;;
57567;SDS011;43403;51.948;5.922;2023-10-13T01:20:40;20.10;;;10.82;;
57567;SDS011;43403;51.948;5.922;2023-10-13T01:23:12;22.05;;;11.48;;
57567;SDS011;43403;51.948;5.922;2023-10-13T01:25:45;19.65;;;11.68;;
57567;SDS011;43403;51.948;5.922;2023-10-13T01:28:12;16.00;;;10.82;;
57567;SDS011;43403;51.948;5.922;2023-10-13T01:30:44;20.38;;;11.38;;
57567;SDS011;43403;51.948;5.922;2023-10-13T01:33:17;17.17;;;11.50;;
57567;SDS011;43403;51.948;5.922;2023-10-13T01:35:43;19.55;;;11.60;;
57567;SDS011;43403;51.948;5.922;2023-10-13T01:38:13;18.48;;;10.35;;
57567;SDS011;43403;51.948;5.922;2023-10-13T01:40:40;18.65;;;11.18;;
57567;SDS011;43403;51.948;5.922;2023-10-13T01:43:09;14.57;;;9.73;;
57567;SDS011;43403;51.948;5.922;2023-10-13T01:45:37;20.58;;;10.57;;
57567;SDS011;43403;51.948;5.922;2023-10-13T01:48:16;15.63;;;9.75;;
57567;SDS011;43403;51.948;5.922;2023-10-13T01:50:45;13.18;;;9.75;;
57567;SDS011;43403;51.948;5.922;2023-10-13T01:53:20;19.77;;;9.35;;
57567;SDS011;43403;51.948;5.922;2023-10-13T01:55:48;14.35;;;8.77;;
57567;SDS011;43403;51.948;5.922;2023-10-13T01:58:16;13.10;;;8.77;;
57567;SDS011;43403;51.948;5.922;2023-10-13T02:00:43;18.88;;;9.57;;
57567;SDS011;43403;51.948;5.922;2023-10-13T02:03:10;14.35;;;8.68;;
57567;SDS011;43403;51.948;5.922;2023-10-13T02:05:46;18.30;;;9.05;;
57567;SDS011;43403;51.948;5.922;2023-10-13T02:08:16;15.07;;;8.68;;
57567;SDS011;43403;51.948;5.922;2023-10-13T02:10:45;14.50;;;8.50;;
57567;SDS011;43403;51.948;5.922;2023-10-13T02:13:12;15.70;;;9.45;;
57567;SDS011;43403;51.948;5.922;2023-10-13T02:15:41;15.40;;;8.60;;
57567;SDS011;43403;51.948;5.922;2023-10-13T02:18:15;15.05;;;8.32;;
57567;SDS011;43403;51.948;5.922;2023-10-13T02:20:47;14.60;;;9.65;;
57567;SDS011;43403;51.948;5.922;2023-10-13T02:23:21;16.15;;;8.38;;
57567;SDS011;43403;51.948;5.922;2023-10-13T02:25:47;15.48;;;8.10;;
57567;SDS011;43403;51.948;5.922;2023-10-13T02:28:14;16.88;;;8.38;;
57567;SDS011;43403;51.948;5.922;2023-10-13T02:30:41;16.25;;;8.10;;
57567;SDS011;43403;51.948;5.922;2023-10-13T02:33:12;10.70;;;7.43;;
57567;SDS011;43403;51.948;5.922;2023-10-13T02:35:39;15.43;;;7.63;;
57567;SDS011;43403;51.948;5.922;2023-10-13T02:38:09;12.38;;;7.30;;
57567;SDS011;43403;51.948;5.922;2023-10-13T02:40:39;14.05;;;8.00;;
57567;SDS011;43403;51.948;5.922;2023-10-13T02:43:05;17.00;;;7.55;;
57567;SDS011;43403;51.948;5.922;2023-10-13T02:45:32;13.30;;;7.78;;
57567;SDS011;43403;51.948;5.922;2023-10-13T02:48:05;14.65;;;7.70;;
57567;SDS011;43403;51.948;5.922;2023-10-13T02:50:44;14.73;;;7.63;;
57567;SDS011;43403;51.948;5.922;2023-10-13T02:53:11;14.38;;;7.22;;
57567;SDS011;43403;51.948;5.922;2023-10-13T02:55:51;12.23;;;7.45;;
57567;SDS011;43403;51.948;5.922;2023-10-13T02:58:18;13.23;;;7.28;;
57567;SDS011;43403;51.948;5.922;2023-10-13T03:00:44;10.63;;;6.40;;
57567;SDS011;43403;51.948;5.922;2023-10-13T03:03:12;11.25;;;5.95;;
57567;SDS011;43403;51.948;5.922;2023-10-13T03:05:45;10.90;;;6.15;;
57567;SDS011;43403;51.948;5.922;2023-10-13T03:08:11;11.63;;;7.15;;
57567;SDS011;43403;51.948;5.922;2023-10-13T03:10:44;13.05;;;5.47;;
57567;SDS011;43403;51.948;5.922;2023-10-13T03:13:12;11.18;;;5.90;;
57567;SDS011;43403;51.948;5.922;2023-10-13T03:15:39;13.23;;;7.07;;
57567;SDS011;43403;51.948;5.922;2023-10-13T03:18:05;9.43;;;5.25;;
57567;SDS011;43403;51.948;5.922;2023-10-13T03:20:32;11.93;;;6.57;;
57567;SDS011;43403;51.948;5.922;2023-10-13T03:22:58;10.38;;;5.75;;
57567;SDS011;43403;51.948;5.922;2023-10-13T03:25:25;11.93;;;5.70;;
57567;SDS011;43403;51.948;5.922;2023-10-13T03:27:52;14.25;;;5.85;;
57567;SDS011;43403;51.948;5.922;2023-10-13T03:30:18;15.43;;;6.30;;
57567;SDS011;43403;51.948;5.922;2023-10-13T03:32:47;14.13;;;5.93;;
57567;SDS011;43403;51.948;5.922;2023-10-13T03:35:20;8.98;;;5.28;;
57567;SDS011;43403;51.948;5.922;2023-10-13T03:38:04;16.17;;;6.28;;
57567;SDS011;43403;51.948;5.922;2023-10-13T03:40:30;14.98;;;6.35;;
57567;SDS011;43403;51.948;5.922;2023-10-13T03:42:57;12.20;;;7.05;;
57567;SDS011;43403;51.948;5.922;2023-10-13T03:50:38;17.00;;;7.57;;
57567;SDS011;43403;51.948;5.922;2023-10-13T03:53:15;13.43;;;7.90;;
57567;SDS011;43403;51.948;5.922;2023-10-13T03:55:42;11.85;;;6.82;;
57567;SDS011;43403;51.948;5.922;2023-10-13T03:58:14;16.67;;;9.05;;
57567;SDS011;43403;51.948;5.922;2023-10-13T04:00:43;15.10;;;9.20;;
57567;SDS011;43403;51.948;5.922;2023-10-13T04:03:10;16.52;;;8.52;;
57567;SDS011;43403;51.948;5.922;2023-10-13T04:05:42;19.88;;;10.48;;
57567;SDS011;43403;51.948;5.922;2023-10-13T04:08:27;17.83;;;10.15;;
57567;SDS011;43403;51.948;5.922;2023-10-13T04:10:55;17.05;;;9.80;;
57567;SDS011;43403;51.948;5.922;2023-10-13T04:13:21;18.83;;;9.10;;
57567;SDS011;43403;51.948;5.922;2023-10-13T04:16:07;18.10;;;10.00;;
57567;SDS011;43403;51.948;5.922;2023-10-13T04:18:49;13.45;;;8.05;;
57567;SDS011;43403;51.948;5.922;2023-10-13T04:21:22;14.90;;;8.48;;
57567;SDS011;43403;51.948;5.922;2023-10-13T04:24:12;15.13;;;9.43;;
57567;SDS011;43403;51.948;5.922;2023-10-13T04:26:44;17.10;;;9.05;;
57567;SDS011;43403;51.948;5.922;2023-10-13T04:29:30;16.17;;;8.80;;
57567;SDS011;43403;51.948;5.922;2023-10-13T04:32:12;15.75;;;8.90;;
57567;SDS011;43403;51.948;5.922;2023-10-13T04:34:52;16.85;;;9.20;;
57567;SDS011;43403;51.948;5.922;2023-10-13T04:37:24;16.98;;;9.02;;
57567;SDS011;43403;51.948;5.922;2023-10-13T04:39:59;12.75;;;8.63;;
57567;SDS011;43403;51.948;5.922;2023-10-13T04:42:36;14.73;;;8.70;;
57567;SDS011;43403;51.948;5.922;2023-10-13T04:45:16;14.27;;;8.50;;
57567;SDS011;43403;51.948;5.922;2023-10-13T04:48:02;15.67;;;8.97;;
57567;SDS011;43403;51.948;5.922;2023-10-13T04:50:48;18.67;;;10.07;;
57567;SDS011;43403;51.948;5.922;2023-10-13T04:53:20;16.45;;;10.32;;
57567;SDS011;43403;51.948;5.922;2023-10-13T04:56:09;16.10;;;10.00;;
57567;SDS011;43403;51.948;5.922;2023-10-13T04:58:55;17.80;;;10.95;;
57567;SDS011;43403;51.948;5.922;2023-10-13T05:01:40;19.10;;;10.63;;
57567;SDS011;43403;51.948;5.922;2023-10-13T05:04:25;17.23;;;11.48;;
57567;SDS011;43403;51.948;5.922;2023-10-13T05:07:10;16.15;;;11.07;;
57567;SDS011;43403;51.948;5.922;2023-10-13T05:09:56;19.58;;;13.23;;
57567;SDS011;43403;51.948;5.922;2023-10-13T05:12:42;21.13;;;13.38;;
57567;SDS011;43403;51.948;5.922;2023-10-13T05:15:27;20.73;;;13.13;;
57567;SDS011;43403;51.948;5.922;2023-10-13T05:18:12;21.80;;;13.68;;
57567;SDS011;43403;51.948;5.922;2023-10-13T05:21:11;18.23;;;12.13;;
57567;SDS011;43403;51.948;5.922;2023-10-13T05:23:56;20.10;;;13.90;;
57567;SDS011;43403;51.948;5.922;2023-10-13T05:26:41;18.95;;;11.98;;
57567;SDS011;43403;51.948;5.922;2023-10-13T05:29:26;17.77;;;11.45;;
57567;SDS011;43403;51.948;5.922;2023-10-13T05:32:11;16.77;;;11.88;;
57567;SDS011;43403;51.948;5.922;2023-10-13T05:34:56;16.95;;;11.63;;
57567;SDS011;43403;51.948;5.922;2023-10-13T05:37:41;16.40;;;10.13;;
57567;SDS011;43403;51.948;5.922;2023-10-13T05:40:26;15.18;;;9.13;;
57567;SDS011;43403;51.948;5.922;2023-10-13T05:43:11;13.70;;;8.90;;
57567;SDS011;43403;51.948;5.922;2023-10-13T05:46:03;17.38;;;8.60;;
57567;SDS011;43403;51.948;5.922;2023-10-13T05:48:49;14.43;;;8.40;;
57567;SDS011;43403;51.948;5.922;2023-10-13T05:51:28;13.00;;;7.45;;
57567;SDS011;43403;51.948;5.922;2023-10-13T05:54:14;11.93;;;7.30;;
57567;SDS011;43403;51.948;5.922;2023-10-13T05:56:47;11.55;;;8.00;;
57567;SDS011;43403;51.948;5.922;2023-10-13T05:59:34;14.50;;;7.80;;
57567;SDS011;43403;51.948;5.922;2023-10-13T06:02:19;12.32;;;7.55;;
57567;SDS011;43403;51.948;5.922;2023-10-13T06:05:08;13.23;;;7.63;;
57567;SDS011;43403;51.948;5.922;2023-10-13T06:07:55;13.18;;;8.00;;
57567;SDS011;43403;51.948;5.922;2023-10-13T06:10:40;12.65;;;8.00;;
57567;SDS011;43403;51.948;5.922;2023-10-13T06:13:25;11.85;;;7.82;;
57567;SDS011;43403;51.948;5.922;2023-10-13T06:16:15;10.90;;;7.25;;
57567;SDS011;43403;51.948;5.922;2023-10-13T06:19:00;9.93;;;6.93;;
57567;SDS011;43403;51.948;5.922;2023-10-13T06:21:45;9.65;;;7.35;;
57567;SDS011;43403;51.948;5.922;2023-10-13T06:24:30;11.63;;;7.00;;
57567;SDS011;43403;51.948;5.922;2023-10-13T06:27:15;12.98;;;7.43;;
57567;SDS011;43403;51.948;5.922;2023-10-13T06:30:01;10.27;;;6.78;;
57567;SDS011;43403;51.948;5.922;2023-10-13T06:32:28;10.75;;;6.57;;
57567;SDS011;43403;51.948;5.922;2023-10-13T06:34:54;11.93;;;6.25;;
57567;SDS011;43403;51.948;5.922;2023-10-13T06:37:24;8.77;;;5.47;;
57567;SDS011;43403;51.948;5.922;2023-10-13T06:40:00;8.60;;;6.15;;
57567;SDS011;43403;51.948;5.922;2023-10-13T06:42:45;11.40;;;6.35;;
57567;SDS011;43403;51.948;5.922;2023-10-13T06:45:12;12.82;;;5.75;;
57567;SDS011;43403;51.948;5.922;2023-10-13T06:47:38;9.75;;;5.68;;
57567;SDS011;43403;51.948;5.922;2023-10-13T06:50:11;8.95;;;5.70;;
57567;SDS011;43403;51.948;5.922;2023-10-13T06:52:42;10.50;;;5.28;;
57567;SDS011;43403;51.948;5.922;2023-10-13T06:55:09;10.85;;;5.78;;
57567;SDS011;43403;51.948;5.922;2023-10-13T06:57:43;10.35;;;5.32;;
57567;SDS011;43403;51.948;5.922;2023-10-13T07:00:10;8.38;;;5.25;;
57567;SDS011;43403;51.948;5.922;2023-10-13T07:02:46;10.48;;;5.53;;
57567;SDS011;43403;51.948;5.922;2023-10-13T07:05:13;9.93;;;5.68;;
57567;SDS011;43403;51.948;5.922;2023-10-13T07:07:40;11.60;;;5.63;;
57567;SDS011;43403;51.948;5.922;2023-10-13T07:10:10;10.02;;;6.05;;
57567;SDS011;43403;51.948;5.922;2023-10-13T07:12:41;11.98;;;5.88;;
57567;SDS011;43403;51.948;5.922;2023-10-13T07:15:11;9.43;;;5.20;;
57567;SDS011;43403;51.948;5.922;2023-10-13T07:17:45;9.23;;;6.05;;
57567;SDS011;43403;51.948;5.922;2023-10-13T07:20:13;13.55;;;6.25;;
57567;SDS011;43403;51.948;5.922;2023-10-13T07:22:53;15.20;;;7.07;;
57567;SDS011;43403;51.948;5.922;2023-10-13T07:25:33;10.48;;;5.93;;
57567;SDS011;43403;51.948;5.922;2023-10-13T07:28:00;13.77;;;6.40;;
57567;SDS011;43403;51.948;5.922;2023-10-13T07:30:26;12.75;;;6.00;;
57567;SDS011;43403;51.948;5.922;2023-10-13T07:32:53;9.75;;;5.25;;
57567;SDS011;43403;51.948;5.922;2023-10-13T07:35:24;11.57;;;5.63;;
57567;SDS011;43403;51.948;5.922;2023-10-13T07:37:51;9.85;;;5.40;;
57567;SDS011;43403;51.948;5.922;2023-10-13T07:40:21;12.60;;;5.85;;
57567;SDS011;43403;51.948;5.922;2023-10-13T07:42:54;13.02;;;5.45;;
57567;SDS011;43403;51.948;5.922;2023-10-13T07:45:37;13.52;;;5.50;;
57567;SDS011;43403;51.948;5.922;2023-10-13T07:48:04;15.87;;;5.73;;
57567;SDS011;43403;51.948;5.922;2023-10-13T07:50:39;13.13;;;5.22;;
57567;SDS011;43403;51.948;5.922;2023-10-13T07:53:06;13.05;;;5.35;;
57567;SDS011;43403;51.948;5.922;2023-10-13T07:55:45;13.90;;;5.80;;
57567;SDS011;43403;51.948;5.922;2023-10-13T07:58:13;19.15;;;5.38;;
57567;SDS011;43403;51.948;5.922;2023-10-13T08:00:42;14.10;;;5.47;;
57567;SDS011;43403;51.948;5.922;2023-10-13T08:03:12;10.48;;;5.50;;
57567;SDS011;43403;51.948;5.922;2023-10-13T08:05:43;13.60;;;5.28;;
57567;SDS011;43403;51.948;5.922;2023-10-13T08:08:31;10.30;;;5.45;;
57567;SDS011;43403;51.948;5.922;2023-10-13T08:11:08;14.52;;;5.25;;
57567;SDS011;43403;51.948;5.922;2023-10-13T08:13:59;10.38;;;4.65;;
57567;SDS011;43403;51.948;5.922;2023-10-13T08:16:38;13.50;;;4.68;;
57567;SDS011;43403;51.948;5.922;2023-10-13T08:19:24;14.38;;;6.30;;
57567;SDS011;43403;51.948;5.922;2023-10-13T08:21:54;12.55;;;4.97;;
57567;SDS011;43403;51.948;5.922;2023-10-13T08:24:26;14.32;;;5.72;;
57567;SDS011;43403;51.948;5.922;2023-10-13T08:27:08;13.77;;;5.35;;
57567;SDS011;43403;51.948;5.922;2023-10-13T08:29:41;17.35;;;5.78;;
57567;SDS011;43403;51.948;5.922;2023-10-13T08:32:27;19.58;;;6.00;;
57567;SDS011;43403;51.948;5.922;2023-10-13T08:34:55;16.30;;;5.85;;
57567;SDS011;43403;51.948;5.922;2023-10-13T08:37:29;14.02;;;5.65;;
57567;SDS011;43403;51.948;5.922;2023-10-13T08:39:59;13.38;;;5.57;;
57567;SDS011;43403;51.948;5.922;2023-10-13T08:42:49;17.85;;;6.00;;
57567;SDS011;43403;51.948;5.922;2023-10-13T08:45:39;14.02;;;5.57;;
57567;SDS011;43403;51.948;5.922;2023-10-13T08:48:06;12.98;;;6.00;;
57567;SDS011;43403;51.948;5.922;2023-10-13T08:53:20;12.13;;;5.38;;
57567;SDS011;43403;51.948;5.922;2023-10-13T08:58:46;10.50;;;5.38;;
57567;SDS011;43403;51.948;5.922;2023-10-13T09:01:35;17.05;;;6.47;;
57567;SDS011;43403;51.948;5.922;2023-10-13T09:04:20;15.25;;;5.45;;
57567;SDS011;43403;51.948;5.922;2023-10-13T09:06:53;15.73;;;5.80;;
57567;SDS011;43403;51.948;5.922;2023-10-13T09:14:40;14.45;;;5.00;;
57567;SDS011;43403;51.948;5.922;2023-10-13T09:17:11;19.08;;;5.93;;
57567;SDS011;43403;51.948;5.922;2023-10-13T09:19:45;12.25;;;5.25;;
57567;SDS011;43403;51.948;5.922;2023-10-13T09:22:47;14.77;;;5.20;;
57567;SDS011;43403;51.948;5.922;2023-10-13T09:25:09;18.88;;;5.57;;
57567;SDS011;43403;51.948;5.922;2023-10-13T09:27:40;12.27;;;4.93;;
57567;SDS011;43403;51.948;5.922;2023-10-13T09:30:07;12.70;;;5.55;;
57567;SDS011;43403;51.948;5.922;2023-10-13T09:32:44;11.38;;;5.10;;
57567;SDS011;43403;51.948;5.922;2023-10-13T09:35:18;17.67;;;5.32;;
57567;SDS011;43403;51.948;5.922;2023-10-13T09:37:45;17.25;;;5.60;;
57567;SDS011;43403;51.948;5.922;2023-10-13T09:40:15;15.63;;;5.70;;
57567;SDS011;43403;51.948;5.922;2023-10-13T09:42:52;15.50;;;5.10;;
57567;SDS011;43403;51.948;5.922;2023-10-13T09:45:28;10.75;;;4.85;;
57567;SDS011;43403;51.948;5.922;2023-10-13T09:48:00;16.65;;;5.85;;
57567;SDS011;43403;51.948;5.922;2023-10-13T09:50:35;17.90;;;5.97;;
57567;SDS011;43403;51.948;5.922;2023-10-13T09:53:06;22.40;;;5.93;;
57567;SDS011;43403;51.948;5.922;2023-10-13T09:55:38;17.52;;;5.57;;
57567;SDS011;43403;51.948;5.922;2023-10-13T09:58:07;16.77;;;5.68;;
57567;SDS011;43403;51.948;5.922;2023-10-13T10:00:45;14.65;;;5.43;;
57567;SDS011;43403;51.948;5.922;2023-10-13T10:03:14;20.52;;;5.50;;
57567;SDS011;43403;51.948;5.922;2023-10-13T10:05:42;18.50;;;5.82;;
57567;SDS011;43403;51.948;5.922;2023-10-13T10:08:25;16.45;;;5.15;;
57567;SDS011;43403;51.948;5.922;2023-10-13T10:13:33;15.88;;;5.00;;
57567;SDS011;43403;51.948;5.922;2023-10-13T10:16:07;15.13;;;5.15;;
57567;SDS011;43403;51.948;5.922;2023-10-13T10:18:41;15.43;;;5.32;;
57567;SDS011;43403;51.948;5.922;2023-10-13T10:21:07;13.15;;;4.70;;
57567;SDS011;43403;51.948;5.922;2023-10-13T10:23:34;15.98;;;5.70;;
57567;SDS011;43403;51.948;5.922;2023-10-13T10:26:10;16.77;;;5.72;;
57567;SDS011;43403;51.948;5.922;2023-10-13T10:28:38;16.73;;;5.32;;
57567;SDS011;43403;51.948;5.922;2023-10-13T10:31:06;19.35;;;4.88;;
57567;SDS011;43403;51.948;5.922;2023-10-13T10:33:43;15.88;;;5.72;;
57567;SDS011;43403;51.948;5.922;2023-10-13T10:36:11;17.40;;;4.63;;
57567;SDS011;43403;51.948;5.922;2023-10-13T10:38:53;15.48;;;5.25;;
57567;SDS011;43403;51.948;5.922;2023-10-13T10:41:29;19.45;;;5.65;;
57567;SDS011;43403;51.948;5.922;2023-10-13T10:44:09;15.90;;;6.13;;
57567;SDS011;43403;51.948;5.922;2023-10-13T10:46:35;20.48;;;6.40;;
57567;SDS011;43403;51.948;5.922;2023-10-13T10:49:08;20.45;;;5.13;;
57567;SDS011;43403;51.948;5.922;2023-10-13T10:51:41;14.45;;;5.63;;
57567;SDS011;43403;51.948;5.922;2023-10-13T10:54:18;18.98;;;5.85;;
57567;SDS011;43403;51.948;5.922;2023-10-13T10:56:46;16.98;;;5.95;;
57567;SDS011;43403;51.948;5.922;2023-10-13T10:59:18;16.58;;;5.93;;
57567;SDS011;43403;51.948;5.922;2023-10-13T11:01:46;12.85;;;5.60;;
57567;SDS011;43403;51.948;5.922;2023-10-13T11:04:19;18.88;;;6.00;;
57567;SDS011;43403;51.948;5.922;2023-10-13T11:07:00;20.95;;;5.60;;
57567;SDS011;43403;51.948;5.922;2023-10-13T11:11:53;19.00;;;5.72;;
57567;SDS011;43403;51.948;5.922;2023-10-13T11:14:23;16.80;;;6.53;;
57567;SDS011;43403;51.948;5.922;2023-10-13T11:16:51;19.75;;;6.55;;
57567;SDS011;43403;51.948;5.922;2023-10-13T11:19:17;21.42;;;6.85;;
57567;SDS011;43403;51.948;5.922;2023-10-13T11:21:46;14.02;;;5.20;;
57567;SDS011;43403;51.948;5.922;2023-10-13T11:24:14;23.73;;;6.03;;
57567;SDS011;43403;51.948;5.922;2023-10-13T11:26:40;16.02;;;5.15;;
57567;SDS011;43403;51.948;5.922;2023-10-13T11:29:17;12.55;;;5.03;;
57567;SDS011;43403;51.948;5.922;2023-10-13T11:31:46;15.23;;;5.20;;
57567;SDS011;43403;51.948;5.922;2023-10-13T11:34:12;16.38;;;5.82;;
57567;SDS011;43403;51.948;5.922;2023-10-13T11:36:43;14.15;;;5.93;;
57567;SDS011;43403;51.948;5.922;2023-10-13T11:39:09;21.58;;;5.43;;
57567;SDS011;43403;51.948;5.922;2023-10-13T11:41:43;14.38;;;5.60;;
57567;SDS011;43403;51.948;5.922;2023-10-13T11:44:17;22.52;;;5.95;;
57567;SDS011;43403;51.948;5.922;2023-10-13T11:46:43;19.85;;;6.07;;
57567;SDS011;43403;51.948;5.922;2023-10-13T11:49:10;15.75;;;5.68;;
57567;SDS011;43403;51.948;5.922;2023-10-13T11:51:40;15.63;;;5.40;;
57567;SDS011;43403;51.948;5.922;2023-10-13T11:54:17;17.13;;;5.70;;
57567;SDS011;43403;51.948;5.922;2023-10-13T11:56:45;15.80;;;5.70;;
57567;SDS011;43403;51.948;5.922;2023-10-13T11:59:11;17.38;;;5.60;;
57567;SDS011;43403;51.948;5.922;2023-10-13T12:01:45;18.20;;;5.60;;
57567;SDS011;43403;51.948;5.922;2023-10-13T12:04:29;20.38;;;5.60;;
57567;SDS011;43403;51.948;5.922;2023-10-13T12:07:07;22.20;;;6.70;;
57567;SDS011;43403;51.948;5.922;2023-10-13T12:09:47;16.70;;;5.70;;
57567;SDS011;43403;51.948;5.922;2023-10-13T12:12:22;20.75;;;6.38;;
57567;SDS011;43403;51.948;5.922;2023-10-13T12:14:49;16.40;;;5.28;;
57567;SDS011;43403;51.948;5.922;2023-10-13T12:17:19;17.27;;;5.93;;
57567;SDS011;43403;51.948;5.922;2023-10-13T12:19:51;17.58;;;6.68;;
57567;SDS011;43403;51.948;5.922;2023-10-13T12:22:18;15.68;;;5.57;;
57567;SDS011;43403;51.948;5.922;2023-10-13T12:24:54;16.73;;;6.13;;
57567;SDS011;43403;51.948;5.922;2023-10-13T12:27:20;21.83;;;6.03;;
57567;SDS011;43403;51.948;5.922;2023-10-13T12:29:50;15.85;;;6.00;;
57567;SDS011;43403;51.948;5.922;2023-10-13T12:32:21;20.20;;;6.10;;
57567;SDS011;43403;51.948;5.922;2023-10-13T12:34:51;17.27;;;5.95;;
57567;SDS011;43403;51.948;5.922;2023-10-13T12:37:42;15.77;;;5.70;;
57567;SDS011;43403;51.948;5.922;2023-10-13T12:40:11;23.50;;;7.30;;
57567;SDS011;43403;51.948;5.922;2023-10-13T12:45:42;16.92;;;6.25;;
57567;SDS011;43403;51.948;5.922;2023-10-13T12:48:28;15.68;;;5.95;;
57567;SDS011;43403;51.948;5.922;2023-10-13T12:51:14;19.95;;;6.72;;
57567;SDS011;43403;51.948;5.922;2023-10-13T12:53:50;19.35;;;5.88;;
57567;SDS011;43403;51.948;5.922;2023-10-13T12:56:17;16.83;;;5.55;;
57567;SDS011;43403;51.948;5.922;2023-10-13T12:58:44;17.42;;;6.65;;
57567;SDS011;43403;51.948;5.922;2023-10-13T13:01:19;14.10;;;5.35;;
57567;SDS011;43403;51.948;5.922;2023-10-13T13:03:47;16.80;;;6.18;;
57567;SDS011;43403;51.948;5.922;2023-10-13T13:06:18;17.00;;;6.45;;
57567;SDS011;43403;51.948;5.922;2023-10-13T13:08:54;20.17;;;6.30;;
57567;SDS011;43403;51.948;5.922;2023-10-13T13:11:21;16.05;;;5.95;;
57567;SDS011;43403;51.948;5.922;2023-10-13T13:13:50;22.67;;;6.28;;
57567;SDS011;43403;51.948;5.922;2023-10-13T13:16:18;19.42;;;5.28;;
57567;SDS011;43403;51.948;5.922;2023-10-13T13:18:46;18.63;;;5.95;;
57567;SDS011;43403;51.948;5.922;2023-10-13T13:21:12;17.50;;;6.35;;
57567;SDS011;43403;51.948;5.922;2023-10-13T13:23:44;21.60;;;6.50;;
57567;SDS011;43403;51.948;5.922;2023-10-13T13:26:11;18.75;;;5.88;;
57567;SDS011;43403;51.948;5.922;2023-10-13T13:28:44;17.55;;;5.97;;
57567;SDS011;43403;51.948;5.922;2023-10-13T13:31:11;17.10;;;6.22;;
57567;SDS011;43403;51.948;5.922;2023-10-13T13:33:38;16.27;;;5.95;;
57567;SDS011;43403;51.948;5.922;2023-10-13T13:36:08;17.48;;;6.13;;
57567;SDS011;43403;51.948;5.922;2023-10-13T13:38:43;14.43;;;5.20;;
57567;SDS011;43403;51.948;5.922;2023-10-13T13:41:13;17.33;;;4.97;;
57567;SDS011;43403;51.948;5.922;2023-10-13T13:43:43;17.30;;;6.25;;
57567;SDS011;43403;51.948;5.922;2023-10-13T13:46:16;21.65;;;5.45;;
57567;SDS011;43403;51.948;5.922;2023-10-13T13:48:43;15.40;;;5.78;;
57567;SDS011;43403;51.948;5.922;2023-10-13T13:51:13;14.68;;;5.50;;
57567;SDS011;43403;51.948;5.922;2023-10-13T13:56:12;21.65;;;5.53;;
57567;SDS011;43403;51.948;5.922;2023-10-13T13:58:45;16.23;;;5.65;;
57567;SDS011;43403;51.948;5.922;2023-10-13T14:01:12;15.68;;;5.32;;
57567;SDS011;43403;51.948;5.922;2023-10-13T14:03:41;17.70;;;4.80;;
57567;SDS011;43403;51.948;5.922;2023-10-13T14:06:14;10.70;;;5.22;;
57567;SDS011;43403;51.948;5.922;2023-10-13T14:08:51;16.50;;;4.95;;
57567;SDS011;43403;51.948;5.922;2023-10-13T14:11:22;13.93;;;4.80;;
57567;SDS011;43403;51.948;5.922;2023-10-13T14:14:13;19.90;;;4.90;;
57567;SDS011;43403;51.948;5.922;2023-10-13T14:16:55;12.43;;;4.50;;
57567;SDS011;43403;51.948;5.922;2023-10-13T14:19:42;15.13;;;4.82;;
57567;SDS011;43403;51.948;5.922;2023-10-13T14:22:10;15.07;;;5.00;;
57567;SDS011;43403;51.948;5.922;2023-10-13T14:24:39;16.40;;;5.25;;
57567;SDS011;43403;51.948;5.922;2023-10-13T14:27:18;19.30;;;4.97;;
57567;SDS011;43403;51.948;5.922;2023-10-13T14:29:45;15.30;;;4.90;;
57567;SDS011;43403;51.948;5.922;2023-10-13T14:32:13;19.77;;;5.32;;
57567;SDS011;43403;51.948;5.922;2023-10-13T14:34:41;18.92;;;5.00;;
57567;SDS011;43403;51.948;5.922;2023-10-13T14:37:10;24.63;;;4.85;;
57567;SDS011;43403;51.948;5.922;2023-10-13T14:39:40;16.48;;;5.18;;
57567;SDS011;43403;51.948;5.922;2023-10-13T14:42:07;14.35;;;4.93;;
57567;SDS011;43403;51.948;5.922;2023-10-13T14:44:33;15.18;;;4.97;;
57567;SDS011;43403;51.948;5.922;2023-10-13T14:47:01;16.80;;;4.77;;
57567;SDS011;43403;51.948;5.922;2023-10-13T14:49:28;18.90;;;5.15;;
57567;SDS011;43403;51.948;5.922;2023-10-13T14:51:55;15.98;;;4.80;;
57567;SDS011;43403;51.948;5.922;2023-10-13T14:54:21;14.18;;;4.97;;
57567;SDS011;43403;51.948;5.922;2023-10-13T14:57:00;16.92;;;5.03;;
57567;SDS011;43403;51.948;5.922;2023-10-13T14:59:27;17.77;;;5.25;;
57567;SDS011;43403;51.948;5.922;2023-10-13T15:01:54;15.68;;;5.25;;
57567;SDS011;43403;51.948;5.922;2023-10-13T15:04:21;16.25;;;5.35;;
57567;SDS011;43403;51.948;5.922;2023-10-13T15:06:51;19.42;;;5.35;;
57567;SDS011;43403;51.948;5.922;2023-10-13T15:09:17;16.02;;;5.05;;
57567;SDS011;43403;51.948;5.922;2023-10-13T15:11:50;18.33;;;5.63;;
57567;SDS011;43403;51.948;5.922;2023-10-13T15:14:19;15.77;;;4.72;;
57567;SDS011;43403;51.948;5.922;2023-10-13T15:16:49;19.65;;;5.10;;
57567;SDS011;43403;51.948;5.922;2023-10-13T15:19:16;16.65;;;4.90;;
57567;SDS011;43403;51.948;5.922;2023-10-13T15:21:42;15.93;;;5.82;;
57567;SDS011;43403;51.948;5.922;2023-10-13T15:24:13;13.63;;;4.93;;
57567;SDS011;43403;51.948;5.922;2023-10-13T15:26:43;17.20;;;5.10;;
57567;SDS011;43403;51.948;5.922;2023-10-13T15:29:19;17.23;;;5.68;;
57567;SDS011;43403;51.948;5.922;2023-10-13T15:31:52;15.65;;;5.30;;
57567;SDS011;43403;51.948;5.922;2023-10-13T15:34:25;16.77;;;5.68;;
57567;SDS011;43403;51.948;5.922;2023-10-13T15:36:55;15.73;;;5.20;;
57567;SDS011;43403;51.948;5.922;2023-10-13T15:39:22;13.57;;;5.68;;